createdAt,value
2023-02-05T00:02:02.080Z,127.8806
2023-02-05T00:07:03.671Z,125.71091
2023-02-05T00:12:05.137Z,125.71091
2023-02-05T00:17:06.716Z,125.17647
2023-02-05T00:22:08.490Z,124.64516
2023-02-05T00:27:09.986Z,123.06977
2023-02-05T00:32:11.521Z,121.52161
2023-02-05T00:37:13.049Z,121.01149
2023-02-05T00:42:14.833Z,121.52161
2023-02-05T00:47:17.054Z,120
2023-02-05T00:52:19.271Z,121.52161
2023-02-05T00:57:21.091Z,121.01149
2023-02-05T01:02:23.046Z,122.03468
2023-02-05T01:07:24.964Z,120
2023-02-05T01:12:26.968Z,116.06704
2023-02-05T01:17:28.766Z,109.14745
2023-02-05T01:22:30.902Z,106.53298
2023-02-05T01:27:32.754Z,106.96296
2023-02-05T01:32:34.794Z,107.39523
2023-02-05T01:37:36.497Z,107.82979
2023-02-05T01:42:38.266Z,107.39523
2023-02-05T01:47:40.184Z,107.39523
2023-02-05T01:52:41.971Z,109.5914
2023-02-05T01:57:43.774Z,108.70588
2023-02-05T02:02:45.966Z,108.26667
2023-02-05T02:07:47.756Z,107.82979
2023-02-05T02:12:49.786Z,108.26667
2023-02-05T02:17:51.564Z,108.70588
2023-02-05T02:22:53.649Z,109.14745
2023-02-05T02:27:55.474Z,111.84741
2023-02-05T02:32:57.651Z,112.30601
2023-02-05T02:37:59.379Z,115.58774
2023-02-05T02:43:01.069Z,116.54902
2023-02-05T02:48:02.846Z,116.06704
2023-02-05T02:53:05.500Z,117.03371
2023-02-05T02:58:07.026Z,117.52113
2023-02-05T03:03:08.750Z,117.03371
2023-02-05T03:08:10.234Z,117.03371
2023-02-05T03:13:11.879Z,116.06704
2023-02-05T03:18:13.585Z,116.54902
2023-02-05T03:23:15.217Z,117.03371
2023-02-05T03:28:17.051Z,116.06704
2023-02-05T03:33:19.800Z,116.06704
2023-02-05T03:38:21.462Z,118.0113
2023-02-05T03:43:22.937Z,116.54902
2023-02-05T03:48:24.750Z,116.06704
2023-02-05T03:53:26.944Z,114.63712
2023-02-05T03:58:28.813Z,109.5914
2023-02-05T04:03:30.737Z,106.96296
2023-02-05T04:08:32.648Z,111.84741
2023-02-05T04:13:34.437Z,119
2023-02-05T04:18:36.698Z,118.50425
2023-02-05T04:23:39.216Z,119.49858
2023-02-05T04:28:40.960Z,120.5043
2023-02-05T04:33:42.897Z,120
2023-02-05T04:38:44.730Z,120.5043
2023-02-05T04:43:46.693Z,119
2023-02-05T04:48:48.761Z,120
2023-02-05T04:53:50.887Z,119
2023-02-05T04:58:52.810Z,120.5043
2023-02-05T05:03:54.605Z,118.0113
2023-02-05T05:08:56.388Z,119
2023-02-05T05:13:58.162Z,115.58774
2023-02-05T05:19:00.065Z,119.49858
2023-02-05T05:24:01.906Z,120
2023-02-05T05:29:03.569Z,119.49858
2023-02-05T05:34:05.380Z,119
2023-02-05T05:39:06.941Z,121.01149
2023-02-05T05:44:08.397Z,125.71091
2023-02-05T05:49:09.912Z,120.5043
2023-02-05T05:54:11.669Z,117.52113
2023-02-05T05:59:13.223Z,126.78932
2023-02-05T06:04:14.973Z,129.54217
2023-02-05T06:09:16.459Z,126.78932
2023-02-05T06:14:17.888Z,132.95706
2023-02-05T06:19:19.810Z,127.33333
2023-02-05T06:24:21.445Z,130.10272
2023-02-05T06:29:22.898Z,134.12346
2023-02-05T06:34:25.163Z,135.30435
2023-02-05T06:39:26.614Z,137.10345
2023-02-05T06:44:28.098Z,140.17834
2023-02-05T06:49:29.576Z,140.80511
2023-02-05T06:54:31.185Z,141.4359
2023-02-05T06:59:32.741Z,144
2023-02-05T07:04:34.289Z,148.65116
2023-02-05T07:09:35.751Z,144.65147
2023-02-05T07:14:37.457Z,149.33333
2023-02-05T07:19:39.034Z,146.63158
2023-02-05T07:24:40.672Z,161.66784
2023-02-05T07:29:42.493Z,165.58273
2023-02-05T07:34:44.203Z,165.58273
2023-02-05T07:39:45.657Z,167.18841
2023-02-05T07:44:47.147Z,173.85075
2023-02-05T07:49:48.728Z,172.99628
2023-02-05T07:54:50.345Z,168.81752
2023-02-05T07:59:51.793Z,172.14815
2023-02-05T08:04:53.677Z,188.44444
2023-02-05T08:09:55.180Z,197.49794
2023-02-05T08:14:56.751Z,211.82609
2023-02-05T08:19:58.416Z,219
2023-02-05T08:25:00.133Z,211.82609
2023-02-05T08:30:01.728Z,245.96078
2023-02-05T08:35:09.318Z,237.33333
2023-02-05T08:40:11.117Z,210.66667
2023-02-05T08:45:12.922Z,231.85047
2023-02-05T08:50:14.482Z,227.87097
2023-02-05T08:55:16.188Z,230.51163
2023-02-05T09:00:17.973Z,248.9505
2023-02-05T09:05:19.865Z,233.20188
2023-02-05T09:10:21.670Z,234.56604
2023-02-05T09:15:23.461Z,225.27854
2023-02-05T09:20:25.675Z,247.44828
2023-02-05T09:25:27.879Z,245.96078
2023-02-05T09:30:29.681Z,233.20188
2023-02-05T09:35:31.642Z,237.33333
2023-02-05T09:40:33.529Z,226.56881
2023-02-05T09:45:38.169Z,237.33333
2023-02-05T09:50:40.700Z,253.54774
2023-02-05T09:55:42.763Z,241.58454
2023-02-05T10:00:44.810Z,248.9505
2023-02-05T10:05:46.915Z,224
2023-02-05T10:10:49.121Z,259.89744
2023-02-05T10:15:50.979Z,238.73684
2023-02-05T10:20:52.883Z,245.96078
2023-02-05T10:25:54.884Z,271.65957
2023-02-05T10:30:56.875Z,273.41176
2023-02-05T10:35:59.067Z,250.46766
2023-02-05T10:41:00.987Z,284.33149
2023-02-05T10:46:02.734Z,268.21053
2023-02-05T10:51:04.414Z,266.51309
2023-02-05T10:56:06.094Z,292.0226
2023-02-05T11:01:07.797Z,275.1828
2023-02-05T11:06:09.374Z,284.33149
2023-02-05T11:11:11.367Z,288.13408
2023-02-05T11:16:13.087Z,259.89744
2023-02-05T11:21:14.836Z,243.02913
2023-02-05T11:26:16.688Z,271.65957
2023-02-05T11:31:18.635Z,275.1828
2023-02-05T11:36:20.570Z,271.65957
2023-02-05T11:41:22.229Z,331.42138
2023-02-05T11:46:23.939Z,300.06936
2023-02-05T11:51:25.851Z,276.97297
2023-02-05T11:56:27.693Z,248.9505
2023-02-05T12:01:29.476Z,276.97297
2023-02-05T12:06:31.398Z,300.06936
2023-02-05T12:11:33.196Z,273.41176
2023-02-05T12:16:35.163Z,276.97297
2023-02-05T12:21:36.965Z,259.89744
2023-02-05T12:26:38.933Z,266.51309
2023-02-05T12:31:40.783Z,278.78261
2023-02-05T12:36:43.132Z,284.33149
2023-02-05T12:41:44.699Z,292.0226
2023-02-05T12:46:46.466Z,300.06936
2023-02-05T12:51:48.250Z,275.1828
2023-02-05T12:56:50.250Z,268.21053
2023-02-05T13:01:52.248Z,255.11111
2023-02-05T13:06:54.276Z,268.21053
2023-02-05T13:11:56.116Z,269.92593
2023-02-05T13:16:57.974Z,269.92593
2023-02-05T13:21:59.988Z,259.89744
2023-02-05T13:27:02.376Z,273.41176
2023-02-05T13:32:14.755Z,250.46766
2023-02-05T13:37:17.643Z,263.17098
2023-02-05T13:42:19.110Z,268.21053
2023-02-05T13:47:20.775Z,278.78261
2023-02-05T13:52:22.238Z,296
2023-02-05T13:57:24.250Z,290.06742
2023-02-05T14:02:25.908Z,264.83333
2023-02-05T14:07:27.615Z,271.65957
2023-02-05T14:12:29.076Z,273.41176
2023-02-05T14:17:30.760Z,247.44828
2023-02-05T14:22:32.353Z,264.83333
2023-02-05T14:27:34.344Z,269.92593
2023-02-05T14:32:35.817Z,263.17098
2023-02-05T14:37:37.281Z,261.52577
2023-02-05T14:42:38.873Z,263.17098
2023-02-05T14:47:40.579Z,263.17098
2023-02-05T14:52:42.300Z,276.97297
2023-02-05T14:57:44.027Z,264.83333
2023-02-05T15:02:46.050Z,264.83333
2023-02-05T15:07:47.560Z,275.1828
2023-02-05T15:12:49.089Z,280.61202
2023-02-05T15:17:50.896Z,275.1828
2023-02-05T15:22:52.491Z,269.92593
2023-02-05T15:27:54.613Z,253.54774
2023-02-05T15:32:56.211Z,235.94313
2023-02-05T15:37:57.917Z,248.9505
2023-02-05T15:42:59.396Z,233.20188
2023-02-05T15:48:01.148Z,216.56637
2023-02-05T15:53:02.593Z,220.23318
2023-02-05T15:58:04.235Z,214.17544
2023-02-05T16:03:05.991Z,211.82609
2023-02-05T16:08:07.705Z,214.17544
2023-02-05T16:13:09.274Z,233.20188
2023-02-05T16:18:11.135Z,214.17544
2023-02-05T16:23:12.562Z,192.3871
2023-02-05T16:28:14.460Z,192.3871
2023-02-05T16:33:16.031Z,202.82353
2023-02-05T16:38:17.953Z,222.73303
2023-02-05T16:43:19.687Z,208.37768
2023-02-05T16:48:21.476Z,196.45902
2023-02-05T16:53:26.135Z,177.33333
2023-02-05T16:58:28.569Z,172.99628
2023-02-05T17:03:30.158Z,175.57895
2023-02-05T17:08:32.025Z,166.38267
2023-02-05T17:13:33.518Z,168
2023-02-05T17:18:34.983Z,166.38267
2023-02-05T17:23:36.595Z,172.14815
2023-02-05T17:28:38.565Z,168.81752
2023-02-05T17:33:40.391Z,168
2023-02-05T17:38:41.969Z,164.78853
2023-02-05T17:43:43.425Z,167.18841
2023-02-05T17:48:45.144Z,164
2023-02-05T17:53:46.964Z,161.66784
2023-02-05T17:58:49.126Z,159.38462
2023-02-05T18:03:50.644Z,153.52381
2023-02-05T18:08:52.474Z,156.41379
2023-02-05T18:13:54.205Z,155.68385
2023-02-05T18:18:56.100Z,159.38462
2023-02-05T18:23:57.705Z,171.30627
2023-02-05T18:28:59.658Z,169.64103
2023-02-05T18:34:01.672Z,170.47059
2023-02-05T18:39:03.649Z,173.85075
2023-02-05T18:44:05.080Z,171.30627
2023-02-05T18:49:06.587Z,166.38267
2023-02-05T18:54:08.226Z,164
2023-02-05T18:59:10.614Z,162.43972
2023-02-05T19:04:12.249Z,147.97351
2023-02-05T19:09:14.051Z,137.71069
2023-02-05T19:14:15.795Z,133.53846
2023-02-05T19:19:17.571Z,130.66667
2023-02-05T19:24:19.298Z,128.43114
2023-02-05T19:29:21.601Z,163.21708
2023-02-05T19:34:23.557Z,186.51969
2023-02-05T19:39:25.568Z,180.01533
2023-02-05T19:44:27.333Z,176.45283
2023-02-05T19:49:28.968Z,182.75969
2023-02-05T19:54:32.564Z,182.75969
2023-02-05T19:59:34.536Z,178.22053
2023-02-05T20:04:36.645Z,181.83784
2023-02-05T20:09:38.531Z,189.41833
2023-02-05T20:14:40.502Z,181.83784
2023-02-05T20:19:42.397Z,179.1145
2023-02-05T20:24:44.181Z,182.75969
2023-02-05T20:29:46.507Z,173.85075
2023-02-05T20:34:48.291Z,176.45283
2023-02-05T20:39:49.768Z,174.71161
2023-02-05T20:44:51.579Z,171.30627
2023-02-05T20:49:53.456Z,172.14815
2023-02-05T20:54:55.250Z,172.14815
2023-02-05T20:59:57.204Z,173.85075
2023-02-05T21:04:58.958Z,172.14815
2023-02-05T21:10:02.213Z,172.99628
2023-02-05T21:15:04.343Z,173.85075
2023-02-05T21:20:05.834Z,170.47059
2023-02-05T21:25:07.714Z,168.81752
2023-02-05T21:30:09.345Z,166.38267
2023-02-05T21:35:11.133Z,166.38267
2023-02-05T21:40:12.602Z,161.66784
2023-02-05T21:45:14.178Z,168.81752
2023-02-05T21:50:15.659Z,169.64103
2023-02-05T21:55:18.036Z,165.58273
2023-02-05T22:00:19.688Z,168.81752
2023-02-05T22:05:21.261Z,168.81752
2023-02-05T22:10:22.947Z,171.30627
2023-02-05T22:15:24.754Z,167.18841
2023-02-05T22:20:26.160Z,172.14815
2023-02-05T22:25:28.203Z,173.85075
2023-02-05T22:30:30.395Z,172.14815
2023-02-05T22:35:32.246Z,167.18841
2023-02-05T22:40:34.141Z,162.43972
2023-02-05T22:45:36.225Z,164
2023-02-05T22:50:41.511Z,166.38267
2023-02-05T22:55:43.456Z,164
2023-02-05T23:00:45.329Z,167.18841
2023-02-05T23:05:47.069Z,164.78853
2023-02-05T23:10:48.850Z,162.43972
2023-02-05T23:15:50.618Z,168.81752
2023-02-05T23:20:52.291Z,168
2023-02-05T23:25:54.156Z,168
2023-02-05T23:30:56.271Z,162.43972
2023-02-05T23:35:58.039Z,163.21708
2023-02-05T23:40:59.849Z,164
2023-02-05T23:46:01.740Z,163.21708
2023-02-05T23:51:03.362Z,164
2023-02-05T23:56:05.292Z,159.38462
